MCO weather

Orlando International Airport
Orlando, Florida, United States

Public forecast

Using degrees Fahrenheit for public forecast. Weather courtesy of forecast.io.

METAR (pilot weather report)

Retrieved 2017/10/24 05:53 UTC (47 minutes ago):

KMCO 240553Z 14003KT 10SM FEW020 FEW100 SCT250 22/22 A2995 RMK AO2 SLP138 60010 T02220222 10244 20222 58011 $

TAF (pilot weather forecast)

Retrieved 2017/10/24 06:30 UTC (10 minutes ago):

TAF KMCO 240527Z 2406/2506 20003KT P6SM SCT035 BKN070 BKN250 FM241000 19003KT P6SM SCT012 BKN080 TEMPO 2410/2413 BKN012 FM241300 24005KT P6SM BKN015 FM241600 25006KT P6SM VCSH SCT025 BKN050 FM242100 29006KT P6SM SCT040 BKN070